Time;durP1;ratioP1;P1;durP2;ratioP2;P2;SDS_P1;SDS_P2;PMS_P1;PMS_P2;Temp;Humidity;BMP_temperature;BMP_pressure;BME280_temperature;BME280_humidity;BME280_pressure;Samples;Min_cycle;Max_cycle;Signal;HPM_P1;HPM_P2
2022/06/20 00:01:10;;;;;;;5.63;4.55;;;24.60;73.60;;;;;;5053349;28;20033;-72
2022/06/20 00:03:41;;;;;;;0.15;0.15;;;24.60;73.70;;;;;;5053548;28;20021;-72
2022/06/20 00:06:16;;;;;;;1.02;0.45;;;24.50;74.00;;;;;;5053416;28;20021;-72
2022/06/20 00:08:42;;;;;;;0.25;0.25;;;24.60;73.60;;;;;;5052954;28;20042;-71
2022/06/20 00:11:16;;;;;;;0.03;0.03;;;24.80;73.10;;;;;;5053187;28;20033;-71
2022/06/20 00:13:46;;;;;;;0.00;0.00;;;24.90;73.00;;;;;;5053284;28;20017;-72
2022/06/20 00:16:14;;;;;;;0.00;0.00;;;24.90;72.70;;;;;;5053025;28;20354;-71
2022/06/20 00:18:40;;;;;;;0.00;0.00;;;24.90;72.50;;;;;;5052878;28;20104;-72
2022/06/20 00:21:09;;;;;;;0.20;0.20;;;24.90;72.70;;;;;;5053047;28;20092;-72
2022/06/20 00:23:35;;;;;;;0.00;0.00;;;24.90;73.10;;;;;;5053078;28;20404;-72
2022/06/20 00:26:01;;;;;;;0.10;0.10;;;24.90;73.10;;;;;;5052919;28;20017;-72
2022/06/20 00:28:26;;;;;;;1.38;1.27;;;24.90;72.90;;;;;;5052647;28;20017;-72
2022/06/20 00:30:52;;;;;;;0.00;0.00;;;24.90;73.20;;;;;;5052823;28;20389;-71
2022/06/20 00:33:18;;;;;;;0.00;0.00;;;24.70;73.70;;;;;;5052706;28;20021;-72
2022/06/20 00:35:43;;;;;;;1.55;1.45;;;24.70;74.00;;;;;;5052793;28;20385;-72
2022/06/20 00:38:18;;;;;;;0.10;0.10;;;24.60;74.10;;;;;;5052357;28;20461;-72
2022/06/20 00:40:48;;;;;;;0.28;0.28;;;24.40;75.20;;;;;;5052626;28;20419;-72
2022/06/20 00:43:35;;;;;;;2.25;0.47;;;24.20;75.90;;;;;;5052359;28;20021;-72
2022/06/20 00:46:04;;;;;;;0.25;0.25;;;24.20;76.10;;;;;;5052492;28;20029;-72
2022/06/20 00:48:45;;;;;;;0.30;0.30;;;24.30;75.80;;;;;;5052166;28;20484;-72
2022/06/20 00:51:23;;;;;;;0.00;0.00;;;24.40;75.60;;;;;;5033660;28;20415;-72
2022/06/20 00:53:58;;;;;;;0.00;0.00;;;24.20;76.10;;;;;;5052423;28;20052;-72
2022/06/20 00:56:30;;;;;;;0.00;0.00;;;24.40;76.20;;;;;;5052061;28;20091;-72
2022/06/20 00:59:02;;;;;;;2.38;0.75;;;24.30;76.30;;;;;;5052677;28;20037;-71
2022/06/20 01:01:33;;;;;;;0.00;0.00;;;24.50;76.30;;;;;;5052072;28;20029;-72
2022/06/20 01:04:02;;;;;;;;;;;24.50;76.50;;;;;;5052695;28;20465;-72
2022/06/20 01:06:35;;;;;;;0.00;0.00;;;24.40;76.30;;;;;;5034401;28;19987;-72
2022/06/20 01:09:07;;;;;;;0.00;0.00;;;24.30;77.10;;;;;;5052053;28;20025;-72
2022/06/20 01:11:47;;;;;;;0.00;0.00;;;24.30;76.80;;;;;;5052391;28;20370;-72
2022/06/20 01:14:33;;;;;;;14.18;2.60;;;24.30;77.30;;;;;;5052164;28;20416;-71
2022/06/20 01:17:05;;;;;;;0.00;0.00;;;24.20;76.80;;;;;;5051889;28;20033;-71
2022/06/20 01:19:52;;;;;;;5.78;1.23;;;24.00;77.50;;;;;;5052028;28;20025;-71
2022/06/20 01:22:49;;;;;;;2.22;0.95;;;23.90;77.90;;;;;;5051908;28;20069;-72
2022/06/20 01:25:36;;;;;;;0.20;0.20;;;23.70;78.60;;;;;;5051938;28;20492;-72
2022/06/20 01:28:06;;;;;;;0.52;0.38;;;23.70;79.00;;;;;;5051779;28;20468;-72
2022/06/20 01:30:36;;;;;;;1.55;1.27;;;23.70;78.80;;;;;;5051815;28;20021;-71
2022/06/20 01:33:03;;;;;;;1.10;0.93;;;23.70;79.00;;;;;;5052152;28;20388;-72
2022/06/20 01:38:15;;;;;;;0.10;0.10;;;23.50;79.20;;;;;;5051582;28;20563;-72
2022/06/20 01:42:18;;;;;;;1.92;0.77;;;23.70;78.80;;;;;;5051910;28;20079;-72
2022/06/20 01:43:33;;;;;;;0.10;0.10;;;23.80;78.70;;;;;;5051629;28;20017;-72
2022/06/20 01:46:01;;;;;;;0.35;0.35;;;24.00;78.20;;;;;;5051700;28;20052;-72
2022/06/20 01:48:30;;;;;;;9.80;1.48;;;24.10;77.40;;;;;;5051522;28;20040;-72
2022/06/20 01:50:58;;;;;;;0.17;0.17;;;24.00;77.70;;;;;;5051757;28;20028;-71
2022/06/20 01:53:30;;;;;;;0.35;0.35;;;23.90;77.90;;;;;;5051738;28;20416;-72
2022/06/20 01:55:58;;;;;;;0.00;0.00;;;23.90;78.60;;;;;;5051770;28;20392;-72
2022/06/20 01:58:35;;;;;;;0.52;0.52;;;23.90;78.40;;;;;;5051451;28;20468;-72
2022/06/20 02:01:02;;;;;;;0.38;0.35;;;23.80;78.80;;;;;;5051484;28;20028;-72
2022/06/20 02:03:31;;;;;;;0.00;0.00;;;23.80;78.70;;;;;;5055553;28;20104;-72
2022/06/20 02:05:58;;;;;;;0.00;0.00;;;23.60;79.30;;;;;;5055493;28;20473;-72
2022/06/20 02:08:24;;;;;;;0.00;0.00;;;23.60;79.70;;;;;;5055307;28;20108;-72
2022/06/20 02:11:10;;;;;;;0.00;0.00;;;23.70;79.80;;;;;;5055289;28;20047;-71
2022/06/20 02:13:42;;;;;;;0.00;0.00;;;23.90;79.00;;;;;;5055461;28;20029;-72
2022/06/20 02:16:11;;;;;;;0.05;0.05;;;23.90;78.90;;;;;;5055276;28;20032;-72
2022/06/20 02:18:40;;;;;;;0.43;0.43;;;23.80;78.70;;;;;;5055035;28;20033;-72
2022/06/20 02:21:13;;;;;;;0.10;0.10;;;23.90;78.50;;;;;;5055139;28;20078;-72
2022/06/20 02:23:44;;;;;;;0.00;0.00;;;23.80;79.00;;;;;;5055285;28;20443;-71
2022/06/20 02:26:11;;;;;;;;;;;23.80;78.90;;;;;;5037784;28;20126;-72
2022/06/20 02:28:42;;;;;;;0.32;0.32;;;23.60;79.80;;;;;;5054781;28;20403;-72
2022/06/20 02:31:09;;;;;;;0.10;0.10;;;23.60;79.60;;;;;;5054963;28;20034;-72
2022/06/20 02:33:35;;;;;;;0.10;0.10;;;23.50;79.70;;;;;;5055030;28;20035;-72
2022/06/20 02:36:03;;;;;;;0.55;0.55;;;23.40;79.90;;;;;;5054738;28;20462;-72
2022/06/20 02:38:29;;;;;;;0.00;0.00;;;23.50;79.90;;;;;;5054732;28;20025;-72
2022/06/20 02:40:56;;;;;;;0.00;0.00;;;23.50;79.70;;;;;;5054936;28;20553;-72
2022/06/20 02:43:33;;;;;;;0.20;0.20;;;23.50;79.70;;;;;;5054673;28;20388;-72
2022/06/20 02:46:00;;;;;;;1.73;1.30;;;23.50;79.60;;;;;;5054755;28;20557;-71
2022/06/20 02:48:29;;;;;;;9.70;7.28;;;23.40;79.40;;;;;;5036529;28;20128;-72
2022/06/20 02:50:59;;;;;;;0.38;0.35;;;23.30;79.20;;;;;;5054547;28;20393;-72
2022/06/20 02:53:41;;;;;;;0.13;0.13;;;23.30;79.20;;;;;;5054629;28;20035;-72
2022/06/20 02:56:09;;;;;;;0.47;0.43;;;23.40;78.80;;;;;;5054423;28;20029;-72
2022/06/20 02:58:39;;;;;;;0.00;0.00;;;23.30;78.50;;;;;;5054324;28;20108;-72
2022/06/20 03:01:31;;;;;;;0.13;0.13;;;23.30;78.80;;;;;;5054403;28;20021;-72
2022/06/20 03:03:58;;;;;;;0.10;0.10;;;23.50;78.30;;;;;;5054486;28;20017;-72
2022/06/20 03:06:27;;;;;;;1.38;1.20;;;23.60;77.40;;;;;;5036302;28;20033;-72
2022/06/20 03:08:54;;;;;;;24.98;8.43;;;23.60;77.20;;;;;;5054309;28;20021;-72
2022/06/20 03:11:21;;;;;;;0.40;0.40;;;23.40;77.70;;;;;;5036408;28;20092;-72
2022/06/20 03:13:47;;;;;;;0.22;0.17;;;23.30;78.30;;;;;;5053523;28;20025;-72
2022/06/20 03:16:14;;;;;;;0.70;0.70;;;23.30;78.90;;;;;;5053974;28;20025;-72
2022/06/20 03:18:49;;;;;;;0.10;0.10;;;23.40;79.10;;;;;;5053838;28;20029;-72
2022/06/20 03:21:22;;;;;;;0.00;0.00;;;23.60;78.30;;;;;;5054300;28;20028;-72
2022/06/20 03:23:49;;;;;;;0.00;0.00;;;23.80;77.80;;;;;;5054006;28;20082;-72
2022/06/20 03:26:20;;;;;;;0.10;0.10;;;23.90;77.60;;;;;;5053932;28;20104;-71
2022/06/20 03:28:46;;;;;;;0.00;0.00;;;23.90;76.80;;;;;;5053919;28;20021;-72
2022/06/20 03:31:13;;;;;;;0.17;0.17;;;24.00;76.20;;;;;;5053882;28;20025;-73
2022/06/20 03:33:40;;;;;;;0.00;0.00;;;24.00;76.90;;;;;;5036243;28;20027;-72
2022/06/20 03:36:13;;;;;;;0.00;0.00;;;24.00;76.80;;;;;;5053812;28;20096;-72
2022/06/20 03:38:41;;;;;;;0.00;0.00;;;24.00;77.10;;;;;;5053712;28;20032;-71
2022/06/20 03:41:09;;;;;;;0.80;0.45;;;24.00;77.10;;;;;;5053787;28;20024;-72
2022/06/20 03:43:37;;;;;;;0.00;0.00;;;24.10;76.60;;;;;;5068025;22;20036;-73
2022/06/20 03:46:15;;;;;;;0.00;0.00;;;24.00;77.40;;;;;;5031502;28;20468;-72
2022/06/20 03:48:49;;;;;;;0.10;0.10;;;23.90;77.70;;;;;;5061934;28;20029;-72
2022/06/20 03:51:21;;;;;;;0.57;0.57;;;24.00;77.40;;;;;;5048225;28;20051;-72
2022/06/20 03:54:02;;;;;;;0.20;0.20;;;23.90;77.40;;;;;;5038879;28;20442;-72
2022/06/20 03:57:00;;;;;;;1.90;0.20;;;23.80;78.10;;;;;;5033090;28;20029;-72
2022/06/20 03:59:48;;;;;;;0.00;0.00;;;23.60;77.90;;;;;;4999152;28;20030;-72
2022/06/20 04:02:27;;;;;;;1.55;1.17;;;23.50;77.70;;;;;;5037053;28;20021;-72
2022/06/20 04:05:06;;;;;;;0.00;0.00;;;23.60;77.40;;;;;;5018803;28;20021;-72
2022/06/20 04:07:39;;;;;;;0.00;0.00;;;23.80;77.20;;;;;;5052899;28;20029;-72
2022/06/20 04:10:59;;;;;;;0.10;0.10;;;23.80;77.50;;;;;;5053020;28;20021;-73
2022/06/20 04:13:30;;;;;;;0.00;0.00;;;23.80;77.20;;;;;;5043974;28;20044;-73
2022/06/20 04:16:18;;;;;;;0.00;0.00;;;23.80;77.10;;;;;;5032833;28;20040;-73
2022/06/20 04:19:14;;;;;;;0.00;0.00;;;23.80;77.50;;;;;;5052021;28;20020;-73
2022/06/20 04:21:49;;;;;;;0.00;0.00;;;23.80;78.20;;;;;;5034587;28;20067;-73
2022/06/20 04:24:34;;;;;;;0.10;0.10;;;23.80;77.50;;;;;;5052020;28;20060;-73
2022/06/20 04:27:24;;;;;;;0.00;0.00;;;23.90;78.00;;;;;;5052103;28;20488;-73
2022/06/20 04:29:53;;;;;;;0.00;0.00;;;23.60;78.60;;;;;;5031444;28;20017;-73
2022/06/20 04:32:33;;;;;;;0.00;0.00;;;23.60;79.20;;;;;;5051858;28;20056;-73
2022/06/20 04:35:11;;;;;;;0.00;0.00;;;23.70;79.10;;;;;;5018441;28;20680;-73
2022/06/20 04:37:50;;;;;;;0.00;0.00;;;23.80;78.90;;;;;;5043140;28;20029;-73
2022/06/20 04:40:19;;;;;;;0.00;0.00;;;23.70;79.80;;;;;;5052321;28;20029;-73
2022/06/20 04:42:52;;;;;;;0.30;0.17;;;23.80;79.50;;;;;;5040961;28;20021;-73
2022/06/20 04:45:29;;;;;;;0.00;0.00;;;23.80;79.60;;;;;;5053614;28;20494;-73
2022/06/20 04:48:07;;;;;;;0.20;0.20;;;23.80;80.60;;;;;;5043004;28;20353;-73
2022/06/20 04:50:35;;;;;;;0.00;0.00;;;23.70;80.60;;;;;;5065691;28;20051;-73
2022/06/20 04:53:09;;;;;;;0.20;0.20;;;23.80;81.00;;;;;;5054508;28;20025;-74
2022/06/20 04:55:38;;;;;;;0.00;0.00;;;23.70;80.30;;;;;;5033521;28;20052;-74
2022/06/20 04:58:08;;;;;;;0.00;0.00;;;23.70;81.20;;;;;;5033149;28;20068;-74
2022/06/20 05:00:42;;;;;;;0.82;0.82;;;23.80;80.70;;;;;;5052399;28;20029;-74
2022/06/20 05:03:14;;;;;;;1.17;0.90;;;23.80;79.90;;;;;;5045953;28;20024;-73
2022/06/20 05:05:43;;;;;;;5.00;1.58;;;23.70;78.40;;;;;;5054181;28;20111;-74
2022/06/20 05:08:13;;;;;;;0.25;0.17;;;23.60;78.10;;;;;;5053861;28;20123;-74
2022/06/20 05:10:47;;;;;;;4.50;1.30;;;23.50;78.40;;;;;;5054115;28;20120;-73
2022/06/20 05:13:32;;;;;;;0.75;0.60;;;23.60;78.60;;;;;;5054323;28;20423;-73
2022/06/20 05:15:59;;;;;;;0.00;0.00;;;23.60;78.20;;;;;;5072140;28;20024;-73
2022/06/20 05:18:31;;;;;;;0.00;0.00;;;23.80;78.00;;;;;;5071692;28;20059;-72
2022/06/20 05:21:06;;;;;;;0.13;0.13;;;24.10;77.50;;;;;;5054036;28;20139;-73
2022/06/20 05:23:42;;;;;;;0.93;0.82;;;24.30;76.90;;;;;;5054001;28;20021;-72
2022/06/20 05:26:13;;;;;;;0.13;0.13;;;24.30;76.80;;;;;;5071522;28;20012;-73
2022/06/20 05:28:40;;;;;;;0.00;0.00;;;24.30;76.70;;;;;;5053751;28;20037;-73
2022/06/20 05:31:07;;;;;;;1.35;0.57;;;24.30;75.80;;;;;;5053918;28;20036;-73
2022/06/20 05:33:43;;;;;;;0.00;0.00;;;24.50;74.70;;;;;;5071993;28;20027;-73
2022/06/20 05:36:29;;;;;;;2.80;2.30;;;24.70;73.70;;;;;;5053819;28;20024;-73
2022/06/20 05:39:00;;;;;;;1.33;1.23;;;24.70;72.90;;;;;;5057889;28;20082;-73
2022/06/20 05:41:26;;;;;;;0.30;0.30;;;24.70;72.00;;;;;;5075894;28;20017;-73
2022/06/20 05:43:53;;;;;;;0.65;0.65;;;24.60;72.20;;;;;;5057896;28;20340;-73
2022/06/20 05:46:36;;;;;;;3.75;0.90;;;24.60;72.50;;;;;;5075458;28;20412;-72
2022/06/20 05:49:06;;;;;;;0.00;0.00;;;24.80;72.00;;;;;;5041049;28;20390;-73
2022/06/20 05:51:38;;;;;;;1.35;1.25;;;25.00;71.40;;;;;;5057545;28;20028;-73
2022/06/20 05:54:18;;;;;;;1.08;0.65;;;25.30;71.20;;;;;;5057695;28;20024;-73
2022/06/20 05:56:56;;;;;;;0.00;0.00;;;25.30;71.10;;;;;;5047823;28;20029;-73
2022/06/20 05:59:28;;;;;;;0.00;0.00;;;25.40;71.00;;;;;;5022475;28;20433;-73
2022/06/20 06:02:12;;;;;;;0.00;0.00;;;25.50;69.80;;;;;;5075415;28;20020;-73
2022/06/20 06:04:45;;;;;;;0.00;0.00;;;25.50;69.60;;;;;;5064612;28;20021;-73
2022/06/20 06:07:36;;;;;;;0.00;0.00;;;25.60;70.00;;;;;;5035690;28;20021;-73
2022/06/20 06:10:28;;;;;;;0.00;0.00;;;25.60;69.40;;;;;;5053726;28;20035;-73
2022/06/20 06:13:08;;;;;;;0.00;0.00;;;25.70;69.30;;;;;;5020648;28;20051;-72
2022/06/20 06:16:50;;;;;;;0.00;0.00;;;25.70;68.70;;;;;;5054811;28;20383;-73
2022/06/20 06:19:08;;;;;;;1.23;1.17;;;25.70;68.10;;;;;;5040698;28;20055;-73
2022/06/20 06:21:35;;;;;;;0.10;0.10;;;25.80;67.80;;;;;;5044491;28;20032;-73
2022/06/20 06:24:03;;;;;;;0.10;0.10;;;25.80;65.10;;;;;;5057118;28;20082;-73
2022/06/20 06:26:29;;;;;;;6.40;4.68;;;25.90;65.90;;;;;;5046294;28;20119;-73
2022/06/20 06:28:55;;;;;;;0.30;0.30;;;25.80;65.60;;;;;;5036704;28;20119;-72
2022/06/20 06:31:28;;;;;;;0.10;0.10;;;25.80;66.20;;;;;;5037083;28;20036;-72
2022/06/20 06:34:00;;;;;;;0.98;0.65;;;25.80;66.90;;;;;;5038064;28;20024;-72
2022/06/20 06:36:49;;;;;;;0.00;0.00;;;25.80;66.30;;;;;;5074654;28;20447;-72
2022/06/20 06:39:28;;;;;;;0.00;0.00;;;25.90;66.40;;;;;;5056734;28;20052;-72
2022/06/20 06:42:00;;;;;;;4.65;2.30;;;25.80;66.40;;;;;;5074717;28;20053;-72
2022/06/20 06:44:35;;;;;;;0.00;0.00;;;25.70;66.90;;;;;;5074430;28;20115;-72
2022/06/20 06:47:03;;;;;;;0.00;0.00;;;25.70;67.00;;;;;;5074444;28;20039;-72
2022/06/20 06:49:42;;;;;;;16.02;2.38;;;25.80;67.40;;;;;;5072996;28;20048;-72
2022/06/20 06:52:10;;;;;;;0.20;0.20;;;25.70;67.70;;;;;;5045681;28;20029;-72
2022/06/20 06:54:42;;;;;;;0.22;0.22;;;25.50;68.90;;;;;;5036427;28;20033;-72
2022/06/20 06:57:25;;;;;;;0.00;0.00;;;25.40;69.80;;;;;;5019590;28;20171;-72
2022/06/20 07:00:03;;;;;;;0.00;0.00;;;25.30;68.90;;;;;;5036351;28;20021;-72
2022/06/20 07:02:32;;;;;;;0.00;0.00;;;25.40;69.40;;;;;;5036300;28;20096;-72
2022/06/20 07:05:16;;;;;;;0.00;0.00;;;25.50;69.70;;;;;;5036452;28;20491;-72
2022/06/20 07:07:47;;;;;;;0.00;0.00;;;25.50;68.90;;;;;;5036117;28;20025;-72
2022/06/20 07:10:23;;;;;;;0.00;0.00;;;25.40;69.00;;;;;;5054137;28;20578;-72
2022/06/20 07:12:51;;;;;;;0.00;0.00;;;25.50;69.40;;;;;;5036227;28;20121;-72
2022/06/20 07:15:22;;;;;;;0.00;0.00;;;25.60;69.20;;;;;;5054089;28;20017;-72
2022/06/20 07:18:19;;;;;;;0.60;0.60;;;25.80;69.40;;;;;;5053697;28;20066;-72
2022/06/20 07:20:46;;;;;;;0.00;0.00;;;25.70;69.00;;;;;;5054352;28;20435;-72
2022/06/20 07:23:17;;;;;;;0.15;0.15;;;25.90;69.30;;;;;;5019377;28;20021;-72
2022/06/20 07:25:47;;;;;;;0.10;0.10;;;26.00;69.00;;;;;;5053863;28;20025;-72
2022/06/20 07:28:22;;;;;;;0.75;0.52;;;26.00;68.10;;;;;;5053487;28;20599;-72
2022/06/20 07:30:57;;;;;;;5.35;1.73;;;26.00;67.60;;;;;;5019441;28;20112;-72
2022/06/20 07:33:29;;;;;;;0.47;0.47;;;25.80;67.30;;;;;;5053799;28;20101;-72
2022/06/20 07:35:57;;;;;;;0.00;0.00;;;26.10;67.00;;;;;;5035912;28;20507;-71
2022/06/20 07:38:34;;;;;;;0.10;0.10;;;26.50;65.70;;;;;;5043236;28;20464;-72
2022/06/20 07:41:37;;;;;;;2.42;2.00;;;26.80;65.10;;;;;;5055824;28;20031;-72
2022/06/20 07:44:29;;;;;;;0.00;0.00;;;27.00;63.50;;;;;;5022139;28;20415;-74
2022/06/20 07:47:18;;;;;;;1.60;1.13;;;27.20;63.00;;;;;;5039815;28;20120;-73
2022/06/20 07:49:52;;;;;;;0.20;0.20;;;27.00;62.50;;;;;;5053469;28;20025;-74
2022/06/20 07:52:41;;;;;;;0.00;0.00;;;26.80;62.90;;;;;;5035483;28;20124;-73
2022/06/20 07:55:12;;;;;;;0.20;0.20;;;26.80;63.20;;;;;;5051390;28;20330;-74
2022/06/20 07:57:43;;;;;;;6.85;6.18;;;26.70;64.00;;;;;;5072926;28;20031;-73
2022/06/20 08:00:21;;;;;;;0.38;0.38;;;26.50;65.20;;;;;;5071235;28;20037;-74
2022/06/20 08:02:55;;;;;;;0.10;0.10;;;26.60;66.30;;;;;;5048077;28;20025;-73
2022/06/20 08:05:41;;;;;;;0.10;0.10;;;26.50;67.60;;;;;;5057008;28;20047;-74
2022/06/20 08:08:24;;;;;;;7.55;1.40;;;26.30;66.80;;;;;;5025791;28;20455;-74
2022/06/20 08:10:56;;;;;;;2.17;1.70;;;26.20;68.20;;;;;;5073055;28;20095;-74
2022/06/20 08:13:41;;;;;;;0.32;0.32;;;26.20;68.20;;;;;;5072995;28;20408;-74
2022/06/20 08:16:14;;;;;;;3.40;2.15;;;26.60;67.50;;;;;;5063586;28;20025;-73
2022/06/20 08:18:40;;;;;;;1.13;1.08;;;26.60;66.60;;;;;;5034256;28;20119;-73
2022/06/20 08:21:19;;;;;;;3.75;2.35;;;26.40;68.10;;;;;;5036143;28;20024;-73
2022/06/20 08:23:48;;;;;;;0.55;0.10;;;26.40;67.60;;;;;;5040321;28;20013;-73
2022/06/20 08:26:23;;;;;;;0.00;0.00;;;26.90;65.40;;;;;;5038290;28;20052;-73
2022/06/20 08:28:57;;;;;;;4.75;1.88;;;27.20;63.90;;;;;;5054605;28;20268;-73
2022/06/20 08:31:33;;;;;;;0.03;0.03;;;27.60;63.00;;;;;;5072764;28;20032;-73
2022/06/20 08:34:20;;;;;;;1.17;1.08;;;28.00;62.40;;;;;;5034921;28;20032;-73
2022/06/20 08:37:16;;;;;;;0.45;0.45;;;28.20;60.80;;;;;;5034478;28;20029;-73
2022/06/20 08:40:04;;;;;;;0.93;0.73;;;28.40;58.70;;;;;;5034459;28;20052;-74
2022/06/20 08:42:47;;;;;;;9.25;2.75;;;28.80;58.70;;;;;;5052392;28;20075;-73
2022/06/20 08:45:42;;;;;;;0.22;0.13;;;28.30;59.20;;;;;;5052183;28;20029;-74
2022/06/20 08:48:58;;;;;;;2.05;1.15;;;28.40;59.20;;;;;;5052188;28;20025;-75
2022/06/20 08:52:07;;;;;;;13.95;2.15;;;28.00;57.40;;;;;;5032394;28;20033;-74
2022/06/20 08:54:38;;;;;;;0.47;0.47;;;28.40;55.90;;;;;;5014614;28;20477;-74
2022/06/20 08:57:11;;;;;;;0.68;0.50;;;28.60;54.90;;;;;;5014456;28;20030;-74
2022/06/20 08:59:55;;;;;;;2.75;1.35;;;28.60;54.70;;;;;;5032122;28;20097;-74
2022/06/20 09:02:32;;;;;;;7.85;3.75;;;28.70;55.00;;;;;;5032202;28;20036;-74
2022/06/20 09:05:22;;;;;;;0.35;0.32;;;28.30;55.40;;;;;;5014568;28;20025;-74
2022/06/20 09:08:13;;;;;;;1.30;0.93;;;28.10;55.60;;;;;;5031897;28;20021;-74
2022/06/20 09:11:22;;;;;;;2.23;0.83;;;28.30;56.20;;;;;;5032065;28;20029;-73
2022/06/20 09:13:57;;;;;;;1.65;0.38;;;28.60;55.20;;;;;;5032198;28;20022;-73
2022/06/20 09:16:54;;;;;;;0.73;0.50;;;28.60;55.80;;;;;;5032126;28;20389;-73
2022/06/20 09:19:32;;;;;;;1.27;1.17;;;28.60;54.00;;;;;;5031973;28;20435;-73
2022/06/20 09:22:14;;;;;;;0.35;0.35;;;28.90;53.40;;;;;;5032390;28;20478;-73
2022/06/20 09:24:47;;;;;;;0.85;0.47;;;29.10;53.10;;;;;;5032059;28;20022;-73
2022/06/20 09:27:42;;;;;;;0.68;0.57;;;29.10;53.10;;;;;;5013983;28;20033;-73
2022/06/20 09:30:28;;;;;;;1.25;1.00;;;29.60;51.40;;;;;;5022670;28;20046;-74
2022/06/20 09:33:12;;;;;;;0.10;0.10;;;30.00;50.70;;;;;;5031945;28;20022;-74
2022/06/20 09:36:15;;;;;;;0.10;0.10;;;30.60;50.90;;;;;;5031929;28;20481;-74
2022/06/20 09:38:56;;;;;;;1.05;0.40;;;31.30;49.70;;;;;;5031595;28;20033;-76
2022/06/20 09:41:40;;;;;;;0.10;0.10;;;30.90;49.20;;;;;;5031846;28;20076;-73
2022/06/20 09:44:33;;;;;;;0.00;0.00;;;31.10;49.30;;;;;;5046927;22;20096;-73
2022/06/20 09:47:27;;;;;;;0.47;0.47;;;31.40;49.30;;;;;;5031078;28;20037;-73
2022/06/20 09:50:22;;;;;;;1.65;1.52;;;31.10;49.40;;;;;;5032418;28;20025;-75
2022/06/20 09:52:54;;;;;;;0.35;0.35;;;30.90;49.20;;;;;;5014003;28;20481;-75
2022/06/20 09:55:55;;;;;;;1.00;0.73;;;31.00;48.50;;;;;;4997580;28;20068;-75
2022/06/20 09:58:34;;;;;;;;;;;31.20;48.50;;;;;;5031892;28;20087;-75
2022/06/20 10:01:44;;;;;;;0.00;0.00;;;30.60;49.70;;;;;;5031640;28;19995;-75
2022/06/20 10:04:40;;;;;;;0.98;0.98;;;30.70;50.20;;;;;;5013476;28;20372;-75
2022/06/20 10:07:12;;;;;;;3.85;1.33;;;30.50;50.30;;;;;;5031336;28;20104;-75
2022/06/20 10:09:42;;;;;;;0.25;0.25;;;30.50;49.30;;;;;;5013711;28;20021;-74
2022/06/20 10:12:35;;;;;;;0.13;0.13;;;30.20;50.60;;;;;;5014224;28;20542;-75
2022/06/20 10:15:05;;;;;;;0.35;0.35;;;30.10;50.60;;;;;;5013703;28;20021;-75
2022/06/20 10:17:57;;;;;;;0.10;0.10;;;30.60;50.40;;;;;;5031198;28;20104;-74
2022/06/20 10:20:25;;;;;;;;;;;31.10;49.20;;;;;;5014055;28;20032;-75
2022/06/20 10:23:12;;;;;;;0.10;0.10;;;31.60;48.80;;;;;;4998512;28;19932;-74
2022/06/20 10:26:14;;;;;;;1.92;1.15;;;31.70;47.80;;;;;;5035145;28;20131;-74
2022/06/20 10:28:48;;;;;;;1.13;0.90;;;31.40;48.90;;;;;;5034771;28;20523;-75
2022/06/20 10:31:25;;;;;;;6.00;0.73;;;31.20;48.70;;;;;;5035035;28;20021;-73
2022/06/20 10:34:14;;;;;;;0.32;0.32;;;31.30;48.70;;;;;;5035095;28;20025;-75
2022/06/20 10:36:46;;;;;;;2.38;1.25;;;31.30;49.10;;;;;;5006273;28;20124;-75
2022/06/20 10:39:24;;;;;;;7.30;3.60;;;31.20;48.80;;;;;;5000425;28;20049;-75
2022/06/20 10:42:07;;;;;;;2.30;1.00;;;30.80;49.00;;;;;;5017108;28;20067;-75
2022/06/20 10:44:57;;;;;;;0.28;0.28;;;30.20;50.60;;;;;;5034659;28;20029;-74
2022/06/20 10:47:42;;;;;;;0.00;0.00;;;30.70;50.70;;;;;;5034707;28;20481;-75
2022/06/20 10:50:31;;;;;;;0.00;0.00;;;31.20;50.00;;;;;;5034598;28;20025;-74
2022/06/20 10:53:15;;;;;;;17.13;3.60;;;31.70;49.60;;;;;;5026444;28;20044;-75
2022/06/20 10:55:54;;;;;;;0.40;0.40;;;31.80;48.20;;;;;;5034651;28;20156;-75
2022/06/20 10:58:40;;;;;;;5.05;1.83;;;31.30;48.70;;;;;;5016447;28;20117;-75
2022/06/20 11:01:18;;;;;;;0.00;0.00;;;31.50;48.10;;;;;;5034541;28;20025;-75
2022/06/20 11:03:44;;;;;;;2.83;1.02;;;31.40;47.40;;;;;;5034450;28;20025;-74
2022/06/20 11:06:21;;;;;;;1.27;0.77;;;31.20;48.40;;;;;;5034470;28;20044;-75
2022/06/20 11:09:13;;;;;;;1.83;1.73;;;31.80;47.20;;;;;;5034219;28;20021;-74
2022/06/20 11:11:56;;;;;;;1.75;0.88;;;31.30;47.10;;;;;;5025992;28;20049;-74
2022/06/20 11:14:32;;;;;;;26.45;3.92;;;30.90;49.10;;;;;;5033094;28;20025;-75
2022/06/20 11:17:22;;;;;;;3.90;0.65;;;30.80;49.10;;;;;;5034195;28;20029;-75
2022/06/20 11:20:00;;;;;;;0.10;0.10;;;31.20;48.90;;;;;;5034099;28;20097;-75
2022/06/20 11:22:38;;;;;;;0.00;0.00;;;31.50;47.70;;;;;;5034223;28;20025;-74
2022/06/20 11:25:12;;;;;;;2.35;1.40;;;31.20;48.20;;;;;;5034249;28;20060;-74
2022/06/20 11:27:53;;;;;;;1.98;1.45;;;30.60;49.00;;;;;;5033874;28;20037;-75
2022/06/20 11:30:24;;;;;;;0.38;0.38;;;30.40;49.90;;;;;;5034304;28;20040;-75
2022/06/20 11:32:59;;;;;;;0.00;0.00;;;30.00;51.10;;;;;;5034178;28;20088;-75
2022/06/20 11:35:44;;;;;;;0.00;0.00;;;30.60;50.50;;;;;;5033218;28;20039;-73
2022/06/20 11:38:51;;;;;;;1.85;1.58;;;30.90;49.50;;;;;;5015919;28;20168;-74
2022/06/20 11:41:36;;;;;;;0.70;0.70;;;31.30;48.50;;;;;;5016052;28;20441;-75
2022/06/20 11:44:19;;;;;;;5.72;2.55;;;31.60;47.20;;;;;;5015935;28;20104;-74
2022/06/20 11:47:02;;;;;;;0.00;0.00;;;31.00;48.10;;;;;;5033577;28;20108;-75
2022/06/20 11:49:33;;;;;;;3.83;0.52;;;30.80;50.00;;;;;;5033736;28;20021;-73
2022/06/20 11:52:41;;;;;;;2.33;0.63;;;30.80;49.40;;;;;;5033620;28;20052;-74
2022/06/20 11:55:29;;;;;;;0.00;0.00;;;30.90;49.70;;;;;;5034260;28;20026;-74
2022/06/20 11:58:04;;;;;;;0.93;0.52;;;31.00;49.30;;;;;;5033227;28;20025;-75
2022/06/20 12:00:44;;;;;;;1.77;1.17;;;31.00;49.00;;;;;;5033376;28;20032;-75
2022/06/20 12:03:26;;;;;;;14.05;3.90;;;31.00;49.10;;;;;;5033397;28;20041;-74
2022/06/20 12:06:03;;;;;;;0.30;0.30;;;31.10;48.60;;;;;;5015687;28;20035;-75
2022/06/20 12:08:55;;;;;;;0.10;0.10;;;31.30;48.60;;;;;;5032347;28;20036;-74
2022/06/20 12:11:29;;;;;;;5.40;0.47;;;31.50;47.50;;;;;;5033215;28;20033;-74
2022/06/20 12:14:39;;;;;;;0.70;0.28;;;31.40;47.00;;;;;;5015616;28;20053;-75
2022/06/20 12:17:34;;;;;;;0.15;0.15;;;31.40;47.30;;;;;;5033222;28;20036;-74
2022/06/20 12:23:24;;;;;;;0.47;0.47;;;31.50;48.00;;;;;;5032897;28;20435;-74
2022/06/20 12:25:56;;;;;;;0.03;0.03;;;31.20;46.40;;;;;;5015267;28;20053;-75
2022/06/20 12:28:31;;;;;;;0.00;0.00;;;31.20;47.00;;;;;;5032699;28;20105;-75
2022/06/20 12:31:10;;;;;;;0.00;0.00;;;31.50;46.40;;;;;;5015115;28;20029;-74
2022/06/20 12:33:45;;;;;;;3.28;2.50;;;31.60;44.90;;;;;;5032765;28;20029;-74
2022/06/20 12:36:32;;;;;;;0.08;0.08;;;31.50;45.50;;;;;;5032676;28;20021;-74
2022/06/20 12:39:16;;;;;;;0.20;0.20;;;31.80;46.10;;;;;;5032660;28;20507;-74
2022/06/20 12:41:54;;;;;;;0.00;0.00;;;31.30;45.90;;;;;;5032639;28;20547;-75
2022/06/20 12:44:41;;;;;;;0.60;0.45;;;31.50;46.90;;;;;;5014631;28;20107;-75
2022/06/20 12:47:22;;;;;;;4.57;0.88;;;31.40;46.60;;;;;;5032333;28;20031;-74
2022/06/20 12:49:54;;;;;;;5.10;3.15;;;31.50;46.80;;;;;;5032399;28;20452;-75
2022/06/20 12:52:35;;;;;;;0.00;0.00;;;31.40;46.00;;;;;;5032340;28;20105;-75
2022/06/20 12:55:19;;;;;;;1.35;0.57;;;31.30;45.60;;;;;;5014581;28;20428;-74
2022/06/20 12:58:02;;;;;;;0.00;0.00;;;31.40;45.20;;;;;;5014616;28;20037;-75
2022/06/20 13:00:51;;;;;;;2.65;1.05;;;31.50;45.20;;;;;;5014454;28;20018;-75
2022/06/20 13:03:36;;;;;;;0.38;0.32;;;31.40;46.30;;;;;;5032284;28;20025;-74
2022/06/20 13:06:23;;;;;;;0.00;0.00;;;31.30;46.80;;;;;;5032005;28;20389;-74
2022/06/20 13:09:10;;;;;;;0.20;0.20;;;31.20;46.30;;;;;;5032039;28;20154;-74
2022/06/20 13:11:54;;;;;;;0.20;0.20;;;31.10;46.00;;;;;;5014466;28;20366;-75
2022/06/20 13:14:48;;;;;;;0.20;0.20;;;30.60;47.40;;;;;;5031992;28;20048;-73
2022/06/20 13:17:36;;;;;;;0.10;0.10;;;30.80;47.00;;;;;;5014108;28;20116;-75
2022/06/20 13:20:26;;;;;;;6.60;2.60;;;31.40;47.00;;;;;;5031982;28;20021;-73
2022/06/20 13:23:29;;;;;;;0.30;0.30;;;31.70;45.40;;;;;;5031995;28;20102;-75
2022/06/20 13:26:22;;;;;;;0.95;0.65;;;31.60;46.40;;;;;;5031951;28;20022;-74
2022/06/20 13:28:54;;;;;;;0.00;0.00;;;31.10;46.00;;;;;;5031929;28;20031;-74
2022/06/20 13:31:34;;;;;;;0.38;0.10;;;31.10;46.80;;;;;;5031974;28;20541;-73
2022/06/20 13:34:19;;;;;;;2.22;1.67;;;31.20;46.50;;;;;;5031924;28;20028;-75
2022/06/20 13:37:11;;;;;;;2.40;0.75;;;31.10;46.90;;;;;;5031683;28;20030;-74
2022/06/20 13:39:41;;;;;;;1.02;0.55;;;31.30;46.50;;;;;;5008612;28;20544;-74
2022/06/20 13:42:28;;;;;;;0.30;0.30;;;31.20;45.90;;;;;;5031727;28;20068;-74
2022/06/20 13:45:09;;;;;;;1.45;0.98;;;31.10;45.30;;;;;;5031712;28;20124;-75
2022/06/20 13:47:49;;;;;;;0.00;0.00;;;31.10;45.40;;;;;;5031624;28;20029;-75
2022/06/20 13:50:28;;;;;;;3.53;1.08;;;31.30;46.00;;;;;;5031578;28;20061;-74